Time;durP1;ratioP1;P1;durP2;ratioP2;P2;SDS_P1;SDS_P2;PMS_P1;PMS_P2;Temp;Humidity;BMP_temperature;BMP_pressure;BME280_temperature;BME280_humidity;BME280_pressure;Samples;Min_cycle;Max_cycle;Signal;HPM_P1;HPM_P2
2022/11/07 00:01:15;;;;;;;73.37;31.13;;;10.50;99.90;;;;;;5081403;28;20174;-85
2022/11/07 00:03:41;;;;;;;71.38;26.52;;;10.40;99.90;;;;;;5080882;28;20393;-86
2022/11/07 00:06:06;;;;;;;69.80;21.03;;;10.40;99.90;;;;;;5080775;28;20192;-86
2022/11/07 00:08:32;;;;;;;70.43;24.60;;;10.40;99.90;;;;;;5081249;28;20595;-86
2022/11/07 00:11:02;;;;;;;70.80;24.73;;;10.50;99.90;;;;;;5083197;28;20164;-86
2022/11/07 00:13:28;;;;;;;73.25;31.65;;;10.50;99.90;;;;;;5082365;28;20171;-85
2022/11/07 00:16:01;;;;;;;73.43;30.60;;;10.60;99.90;;;;;;5082128;28;20258;-85
2022/11/07 00:18:27;;;;;;;70.43;20.95;;;10.50;99.90;;;;;;5081587;28;20160;-86
2022/11/07 00:20:52;;;;;;;74.32;34.63;;;10.50;99.90;;;;;;5082514;28;20189;-86
2022/11/07 00:23:18;;;;;;;71.57;25.90;;;10.50;99.90;;;;;;5081718;28;20221;-85
2022/11/07 00:25:44;;;;;;;72.50;26.53;;;10.50;99.90;;;;;;5082469;28;20189;-85
2022/11/07 00:28:09;;;;;;;72.57;29.97;;;10.50;99.90;;;;;;5080777;28;20643;-86
2022/11/07 00:30:35;;;;;;;73.93;29.47;;;10.50;99.90;;;;;;5082453;28;20195;-85
2022/11/07 00:33:01;;;;;;;71.80;27.70;;;10.50;99.90;;;;;;5079068;28;20207;-84
2022/11/07 00:35:27;;;;;;;70.63;23.70;;;10.40;99.90;;;;;;5078890;28;20170;-85
2022/11/07 00:37:54;;;;;;;71.30;27.43;;;10.40;99.90;;;;;;5079048;28;20180;-85
2022/11/07 00:40:19;;;;;;;72.65;27.15;;;10.50;99.90;;;;;;5079664;28;20434;-85
2022/11/07 00:42:45;;;;;;;72.37;29.13;;;10.50;99.90;;;;;;5080950;28;20653;-85
2022/11/07 00:45:12;;;;;;;71.03;25.67;;;10.50;99.90;;;;;;5081320;28;20188;-85
2022/11/07 00:47:38;;;;;;;71.28;26.75;;;10.40;99.90;;;;;;5081478;28;20168;-85
2022/11/07 00:50:05;;;;;;;71.43;26.43;;;10.50;99.90;;;;;;5079481;28;20268;-85
2022/11/07 00:52:31;;;;;;;71.90;28.23;;;10.50;99.90;;;;;;5079613;28;20830;-87
2022/11/07 00:54:56;;;;;;;73.13;28.53;;;10.50;99.90;;;;;;5079610;28;20198;-86
2022/11/07 00:57:22;;;;;;;71.20;24.30;;;10.50;99.90;;;;;;5078565;28;20167;-87
2022/11/07 00:59:48;;;;;;;71.00;25.13;;;10.50;99.90;;;;;;5079797;28;20211;-85
2022/11/07 01:02:13;;;;;;;73.27;26.63;;;10.50;99.90;;;;;;5078126;28;20440;-86
2022/11/07 01:07:23;;;;;;;71.70;19.40;;;10.60;99.90;;;;;;5080587;28;20619;-87
2022/11/07 01:09:49;;;;;;;68.53;16.87;;;10.60;99.90;;;;;;5078535;28;20231;-87
2022/11/07 01:12:15;;;;;;;73.70;28.10;;;10.60;99.90;;;;;;5078706;28;20164;-86
2022/11/07 01:14:41;;;;;;;72.28;27.67;;;10.50;99.90;;;;;;5078415;28;20167;-86
2022/11/07 01:17:06;;;;;;;76.67;30.70;;;10.50;99.90;;;;;;5078222;28;20168;-86
2022/11/07 01:19:32;;;;;;;71.30;23.20;;;10.60;99.90;;;;;;5080720;28;20184;-87
2022/11/07 01:21:58;;;;;;;69.27;19.40;;;10.60;99.90;;;;;;5079623;28;20220;-87
2022/11/07 01:24:24;;;;;;;69.60;20.23;;;10.60;99.90;;;;;;5078272;28;20171;-86
2022/11/07 01:26:50;;;;;;;73.47;28.37;;;10.60;99.90;;;;;;5079948;28;20179;-86
2022/11/07 01:29:17;;;;;;;69.03;19.00;;;10.60;99.90;;;;;;5078932;28;20517;-87
2022/11/07 01:31:43;;;;;;;71.95;19.35;;;10.60;99.90;;;;;;5080220;28;20184;-87
2022/11/07 01:34:08;;;;;;;70.20;14.90;;;10.60;99.90;;;;;;5079096;28;20206;-87
2022/11/07 01:36:34;;;;;;;70.60;16.33;;;10.60;99.90;;;;;;5080582;28;20164;-87
2022/11/07 01:39:00;;;;;;;67.33;14.10;;;10.60;99.90;;;;;;5080919;28;20187;-87
2022/11/07 01:41:29;;;;;;;70.77;15.70;;;10.60;99.90;;;;;;5080922;28;20399;-87
2022/11/07 01:44:00;;;;;;;67.13;12.98;;;10.50;99.90;;;;;;5078985;28;20956;-87
2022/11/07 01:46:32;;;;;;;67.75;10.75;;;10.50;99.90;;;;;;5077991;28;20651;-87
2022/11/07 01:49:10;;;;;;;68.20;13.52;;;10.50;99.90;;;;;;5078400;28;20570;-86
2022/11/07 01:51:59;;;;;;;70.50;16.48;;;10.50;99.90;;;;;;5080816;28;20148;-87
2022/11/07 01:54:29;;;;;;;70.32;22.88;;;10.40;99.90;;;;;;5066349;28;20226;-86
2022/11/07 01:56:58;;;;;;;71.05;14.43;;;10.30;99.90;;;;;;5080250;28;20590;-87
2022/11/07 01:59:27;;;;;;;68.22;15.75;;;10.40;99.90;;;;;;5079811;28;20270;-87
2022/11/07 02:01:54;;;;;;;68.32;15.02;;;10.30;99.90;;;;;;5081392;28;20194;-87
2022/11/07 02:04:22;;;;;;;71.40;13.60;;;10.30;99.90;;;;;;5079538;28;20720;-87
2022/11/07 02:06:57;;;;;;;69.05;17.88;;;10.20;99.90;;;;;;5080346;28;20182;-86
2022/11/07 02:09:22;;;;;;;72.00;21.77;;;10.20;99.90;;;;;;5079748;28;20578;-87
2022/11/07 02:11:48;;;;;;;68.40;17.77;;;10.10;99.90;;;;;;5079735;28;20164;-86
2022/11/07 02:14:15;;;;;;;68.57;14.47;;;10.10;99.90;;;;;;5080741;28;20171;-87
2022/11/07 02:16:41;;;;;;;69.88;18.05;;;10.10;99.90;;;;;;5078973;28;20170;-86
2022/11/07 02:19:14;;;;;;;71.20;23.75;;;10.00;99.90;;;;;;5078954;28;20183;-87
2022/11/07 02:21:46;;;;;;;70.03;18.42;;;10.00;99.90;;;;;;5079607;28;20152;-86
2022/11/07 02:24:30;;;;;;;74.30;27.35;;;10.00;99.90;;;;;;5077096;28;20188;-86
2022/11/07 02:26:57;;;;;;;73.10;26.40;;;9.90;99.90;;;;;;5077898;28;20163;-87
2022/11/07 02:29:25;;;;;;;73.22;27.70;;;9.90;99.90;;;;;;5076300;28;20203;-86
2022/11/07 02:32:04;;;;;;;73.15;26.35;;;9.90;99.90;;;;;;5077579;28;20164;-86
2022/11/07 02:34:30;;;;;;;73.55;28.67;;;9.80;99.90;;;;;;5077953;28;20222;-86
2022/11/07 02:36:57;;;;;;;71.07;23.83;;;9.80;99.90;;;;;;5079512;28;20198;-86
2022/11/07 02:39:23;;;;;;;74.22;30.83;;;9.80;99.90;;;;;;5084783;28;20183;-86
2022/11/07 02:41:50;;;;;;;77.07;31.00;;;9.80;99.90;;;;;;5083712;28;20183;-87
2022/11/07 02:44:17;;;;;;;72.10;26.70;;;9.70;99.90;;;;;;5083774;28;20412;-86
2022/11/07 02:46:43;;;;;;;73.22;28.45;;;9.60;99.90;;;;;;5084431;28;20168;-87
2022/11/07 02:49:08;;;;;;;74.73;31.47;;;9.60;99.90;;;;;;5082305;28;20263;-87
2022/11/07 02:51:34;;;;;;;73.27;25.80;;;9.50;99.90;;;;;;5082488;28;20164;-87
2022/11/07 02:53:59;;;;;;;71.20;23.80;;;9.50;99.90;;;;;;5082854;28;20194;-87
2022/11/07 02:56:25;;;;;;;72.50;25.60;;;9.50;99.90;;;;;;5083436;28;20164;-86
2022/11/07 02:58:53;;;;;;;72.03;24.23;;;9.50;99.90;;;;;;5084136;28;20179;-87
2022/11/07 03:01:20;;;;;;;72.13;24.10;;;9.50;99.90;;;;;;5082612;28;20225;-86
2022/11/07 03:03:48;;;;;;;72.00;23.45;;;9.40;99.90;;;;;;5082424;28;20235;-87
2022/11/07 03:06:21;;;;;;;74.45;21.40;;;9.50;99.90;;;;;;5082637;28;20168;-86
2022/11/07 03:08:46;;;;;;;71.90;20.45;;;9.40;99.90;;;;;;5082920;28;20184;-86
2022/11/07 03:11:13;;;;;;;71.50;19.70;;;9.40;99.90;;;;;;5084004;28;20585;-87
2022/11/07 03:13:39;;;;;;;74.20;21.10;;;9.40;99.90;;;;;;5083450;28;20156;-87
2022/11/07 03:16:06;;;;;;;69.57;20.00;;;9.40;99.90;;;;;;5084239;28;20175;-87
2022/11/07 03:18:33;;;;;;;73.93;24.17;;;9.40;99.90;;;;;;5082013;28;20160;-87
2022/11/07 03:20:58;;;;;;;70.10;22.83;;;9.40;99.90;;;;;;5084408;28;20163;-86
2022/11/07 03:23:24;;;;;;;73.00;21.40;;;9.40;99.90;;;;;;5083183;28;20172;-87
2022/11/07 03:25:50;;;;;;;71.27;21.47;;;9.40;99.90;;;;;;5084267;28;20198;-87
2022/11/07 03:28:16;;;;;;;70.47;22.20;;;9.40;99.90;;;;;;5085340;28;20167;-87
2022/11/07 03:30:41;;;;;;;70.47;22.10;;;9.40;99.90;;;;;;5083702;28;20204;-87
2022/11/07 03:33:07;;;;;;;73.03;22.10;;;9.30;99.90;;;;;;5084567;28;20701;-87
2022/11/07 03:35:33;;;;;;;71.68;23.20;;;9.30;99.90;;;;;;5085695;28;20214;-87
2022/11/07 03:37:59;;;;;;;77.27;22.40;;;9.30;99.90;;;;;;5083315;28;20218;-87
2022/11/07 03:40:24;;;;;;;74.70;22.77;;;9.30;99.90;;;;;;5084547;28;20198;-87
2022/11/07 03:42:50;;;;;;;75.17;23.73;;;9.30;99.90;;;;;;5083705;28;20198;-87
2022/11/07 03:45:16;;;;;;;74.90;21.73;;;9.30;99.90;;;;;;5083763;28;20218;-87
2022/11/07 03:47:43;;;;;;;73.57;23.03;;;9.30;99.90;;;;;;5084371;28;20171;-87
2022/11/07 03:50:12;;;;;;;70.70;20.77;;;9.30;99.90;;;;;;5084686;28;20203;-87
2022/11/07 03:52:38;;;;;;;77.30;22.73;;;9.30;99.90;;;;;;5085244;28;20167;-87
2022/11/07 03:55:04;;;;;;;70.73;19.07;;;9.20;99.90;;;;;;5083712;28;20168;-85
2022/11/07 03:57:31;;;;;;;71.07;21.50;;;9.30;99.90;;;;;;5082540;28;20163;-86
2022/11/07 03:59:57;;;;;;;70.78;19.20;;;9.20;99.90;;;;;;5081870;28;20197;-86
2022/11/07 04:02:22;;;;;;;68.77;19.00;;;9.30;99.90;;;;;;5080882;28;20204;-86
2022/11/07 04:04:51;;;;;;;76.97;23.37;;;9.20;99.90;;;;;;5080521;28;20179;-86
2022/11/07 04:07:17;;;;;;;73.88;21.85;;;9.20;99.90;;;;;;5081519;28;20213;-85
2022/11/07 04:09:42;;;;;;;71.80;21.50;;;9.20;99.90;;;;;;5081821;28;20200;-86
2022/11/07 04:17:37;;;;;;;70.97;20.95;;;9.10;99.90;;;;;;5083470;28;20151;-86
2022/11/07 04:20:03;;;;;;;70.50;18.30;;;9.10;99.90;;;;;;5081406;28;20191;-86
2022/11/07 04:22:29;;;;;;;72.22;22.05;;;9.10;99.90;;;;;;5083874;28;20223;-86
2022/11/07 04:24:55;;;;;;;71.97;22.10;;;9.10;99.90;;;;;;5083089;28;20168;-86
2022/11/07 04:30:17;;;;;;;75.50;26.65;;;9.10;99.90;;;;;;5083492;28;20252;-85
2022/11/07 04:32:51;;;;;;;73.00;21.80;;;9.10;99.90;;;;;;5080291;28;20551;-86
2022/11/07 04:35:18;;;;;;;73.50;19.05;;;9.10;99.90;;;;;;5083887;28;20160;-86
2022/11/07 04:37:44;;;;;;;70.80;18.92;;;9.10;99.90;;;;;;5082651;28;20168;-86
2022/11/07 04:40:10;;;;;;;72.30;21.43;;;9.10;99.90;;;;;;5084118;28;20229;-86
2022/11/07 04:42:36;;;;;;;73.03;19.80;;;9.10;99.90;;;;;;5082994;28;20470;-87
2022/11/07 04:45:02;;;;;;;70.60;20.80;;;9.00;99.90;;;;;;5084183;28;20168;-87
2022/11/07 04:47:28;;;;;;;71.50;20.02;;;9.00;99.90;;;;;;5084093;28;20547;-87
2022/11/07 04:49:54;;;;;;;74.67;17.77;;;9.00;99.90;;;;;;5081417;28;20215;-87
2022/11/07 04:52:19;;;;;;;70.77;20.20;;;9.00;99.90;;;;;;5081116;28;20171;-86
2022/11/07 04:54:45;;;;;;;73.20;20.73;;;9.00;99.90;;;;;;5084200;28;20198;-87
2022/11/07 04:57:11;;;;;;;70.07;20.07;;;8.90;99.90;;;;;;5082873;28;20172;-87
2022/11/07 04:59:36;;;;;;;78.43;21.20;;;8.90;99.90;;;;;;5082682;28;20180;-86
2022/11/07 05:02:02;;;;;;;81.10;22.60;;;8.90;99.90;;;;;;5082448;28;20172;-86
2022/11/07 05:04:28;;;;;;;70.70;20.10;;;8.90;99.90;;;;;;5083198;28;20195;-87
2022/11/07 05:06:54;;;;;;;73.77;21.97;;;8.90;99.90;;;;;;5082377;28;20410;-86
2022/11/07 05:09:20;;;;;;;71.50;22.90;;;8.90;99.90;;;;;;5083644;28;20446;-86
2022/11/07 05:11:46;;;;;;;72.13;21.80;;;8.90;99.90;;;;;;5083367;28;20639;-87
2022/11/07 05:14:12;;;;;;;71.78;22.40;;;8.80;99.90;;;;;;5080767;28;20406;-87
2022/11/07 05:16:40;;;;;;;73.75;24.75;;;8.80;99.90;;;;;;5082326;28;20171;-87
2022/11/07 05:19:06;;;;;;;73.63;24.23;;;8.80;99.90;;;;;;5083424;28;20283;-86
2022/11/07 05:21:31;;;;;;;77.70;26.37;;;8.90;99.90;;;;;;5082462;28;20187;-86
2022/11/07 05:23:57;;;;;;;74.40;25.30;;;8.90;99.90;;;;;;5082745;28;20658;-86
2022/11/07 05:26:23;;;;;;;72.73;23.00;;;8.90;99.90;;;;;;5082846;28;20163;-86
2022/11/07 05:28:48;;;;;;;77.23;25.03;;;8.90;99.90;;;;;;5081408;28;20245;-86
2022/11/07 05:31:16;;;;;;;77.17;25.50;;;9.00;99.90;;;;;;5081807;28;20168;-86
2022/11/07 05:33:42;;;;;;;77.43;26.83;;;8.90;99.90;;;;;;5142725;22;20223;-84
2022/11/07 05:36:13;;;;;;;75.03;26.92;;;9.00;99.90;;;;;;5081048;28;20192;-84
2022/11/07 05:38:40;;;;;;;75.28;26.90;;;9.00;99.90;;;;;;5081423;28;20168;-84
2022/11/07 05:41:06;;;;;;;82.10;30.60;;;9.00;99.90;;;;;;5081641;28;20163;-84
2022/11/07 05:43:32;;;;;;;78.50;28.43;;;9.10;99.90;;;;;;5083291;28;20187;-84
2022/11/07 05:45:58;;;;;;;78.67;30.67;;;9.20;99.90;;;;;;5080313;28;20171;-84
2022/11/07 05:48:24;;;;;;;80.47;32.67;;;9.20;99.90;;;;;;5080534;28;20163;-84
2022/11/07 05:50:50;;;;;;;75.70;29.83;;;9.20;99.90;;;;;;5080940;28;20204;-84
2022/11/07 05:53:16;;;;;;;80.67;34.13;;;9.20;99.90;;;;;;5082494;28;20402;-84
2022/11/07 05:55:44;;;;;;;77.30;28.50;;;9.30;99.90;;;;;;5081390;28;20210;-84
2022/11/07 05:58:11;;;;;;;74.22;28.35;;;9.30;99.90;;;;;;5083326;28;20186;-84
2022/11/07 06:00:36;;;;;;;78.07;37.28;;;9.40;99.90;;;;;;5079595;28;20187;-84
2022/11/07 06:03:02;;;;;;;83.10;36.43;;;9.50;99.90;;;;;;5082975;28;20178;-84
2022/11/07 06:05:28;;;;;;;85.60;33.73;;;9.60;99.90;;;;;;5080539;28;20360;-84
2022/11/07 06:07:54;;;;;;;83.05;34.20;;;9.70;99.90;;;;;;5080779;28;20170;-84
2022/11/07 06:10:21;;;;;;;75.47;33.35;;;9.70;99.90;;;;;;5080558;28;20215;-84
2022/11/07 06:12:55;;;;;;;80.45;36.20;;;9.80;99.90;;;;;;5080467;28;20164;-84
2022/11/07 06:15:20;;;;;;;82.90;33.40;;;9.90;99.90;;;;;;5080810;28;20153;-84
2022/11/07 06:17:46;;;;;;;79.03;35.83;;;10.00;99.90;;;;;;5080046;28;20166;-84
2022/11/07 06:20:12;;;;;;;81.87;37.47;;;10.10;99.90;;;;;;5080583;28;20587;-84
2022/11/07 06:22:37;;;;;;;86.57;35.67;;;10.20;99.90;;;;;;5078773;28;20164;-84
2022/11/07 06:25:03;;;;;;;75.67;30.60;;;10.20;99.90;;;;;;5078448;28;20170;-84
2022/11/07 06:27:30;;;;;;;77.70;35.50;;;10.20;99.90;;;;;;5077631;28;20199;-84
2022/11/07 06:29:55;;;;;;;77.22;30.13;;;10.30;99.90;;;;;;5078420;28;20446;-84
2022/11/07 06:32:21;;;;;;;80.13;19.27;;;10.30;99.90;;;;;;5078694;28;20187;-84
2022/11/07 06:34:47;;;;;;;74.67;17.17;;;10.30;99.90;;;;;;5078583;28;20173;-84
2022/11/07 06:37:12;;;;;;;70.30;17.47;;;10.40;99.90;;;;;;5079363;28;20167;-84
2022/11/07 06:39:38;;;;;;;72.20;19.90;;;10.40;99.90;;;;;;5079124;28;20191;-84
2022/11/07 06:42:04;;;;;;;76.17;21.33;;;10.40;99.90;;;;;;5078041;28;20175;-84
2022/11/07 06:44:29;;;;;;;73.27;18.40;;;10.50;99.90;;;;;;5077336;28;20250;-84
2022/11/07 06:46:55;;;;;;;73.17;23.27;;;10.50;99.90;;;;;;5076759;28;20164;-83
2022/11/07 06:49:21;;;;;;;74.27;23.27;;;10.50;99.90;;;;;;5077272;28;20200;-84
2022/11/07 06:51:47;;;;;;;77.27;27.20;;;10.60;99.90;;;;;;5076724;28;20177;-83
2022/11/07 06:54:12;;;;;;;78.10;31.83;;;10.70;99.90;;;;;;5076727;28;20398;-83
2022/11/07 06:56:38;;;;;;;77.00;23.77;;;10.90;99.90;;;;;;5076719;28;20172;-83
2022/11/07 06:59:04;;;;;;;73.30;25.97;;;11.00;99.90;;;;;;5076941;28;20191;-83
2022/11/07 07:01:29;;;;;;;77.60;25.20;;;11.10;99.90;;;;;;5076935;28;20174;-83
2022/11/07 07:03:55;;;;;;;86.47;26.70;;;11.20;99.90;;;;;;5075399;28;20413;-83
2022/11/07 07:06:21;;;;;;;73.97;21.10;;;11.20;99.90;;;;;;5074896;28;20171;-83
2022/11/07 07:08:46;;;;;;;74.03;17.40;;;11.30;99.90;;;;;;5075985;28;20251;-83
2022/11/07 07:11:14;;;;;;;75.87;17.80;;;11.30;99.90;;;;;;5076441;28;20163;-83
2022/11/07 07:13:40;;;;;;;73.97;20.83;;;11.40;99.90;;;;;;5075692;28;20156;-83
2022/11/07 07:16:07;;;;;;;79.95;23.50;;;11.40;99.90;;;;;;5075786;28;20584;-83
2022/11/07 07:18:33;;;;;;;71.55;20.98;;;11.50;99.90;;;;;;5075726;28;20197;-84
2022/11/07 07:21:05;;;;;;;76.45;24.13;;;11.60;99.90;;;;;;5075039;28;20160;-83
2022/11/07 07:23:33;;;;;;;74.57;24.30;;;11.60;99.90;;;;;;5077023;28;20160;-83
2022/11/07 07:26:00;;;;;;;74.43;23.52;;;11.60;99.90;;;;;;5079891;28;20573;-84
2022/11/07 07:28:25;;;;;;;83.22;28.63;;;11.70;99.90;;;;;;5079338;28;20160;-84
2022/11/07 07:30:52;;;;;;;80.77;29.30;;;11.70;99.90;;;;;;5079476;28;20562;-84
2022/11/07 07:33:19;;;;;;;83.85;27.83;;;11.70;99.90;;;;;;5079622;28;20279;-83
2022/11/07 07:35:44;;;;;;;79.30;31.77;;;11.70;99.90;;;;;;5079425;28;20205;-83
2022/11/07 07:38:11;;;;;;;75.67;31.57;;;11.80;99.90;;;;;;5079613;28;20188;-84
2022/11/07 07:40:45;;;;;;;77.43;30.48;;;11.80;99.90;;;;;;5078402;28;20528;-83
2022/11/07 07:43:10;;;;;;;77.32;31.98;;;11.90;99.90;;;;;;5078865;28;20145;-83
2022/11/07 07:45:36;;;;;;;77.83;29.70;;;11.90;99.90;;;;;;5078653;28;20223;-83
2022/11/07 07:48:02;;;;;;;76.90;23.17;;;12.00;99.90;;;;;;5078722;28;20237;-83
2022/11/07 07:50:27;;;;;;;80.83;24.67;;;12.00;99.90;;;;;;5077629;28;20544;-83
2022/11/07 07:52:59;;;;;;;74.27;19.60;;;12.00;99.90;;;;;;5078051;28;20167;-84
2022/11/07 07:55:25;;;;;;;82.10;27.13;;;12.00;99.90;;;;;;5079874;28;20516;-83
2022/11/07 07:57:50;;;;;;;77.07;23.90;;;12.00;99.90;;;;;;5079363;28;20167;-84
2022/11/07 08:00:17;;;;;;;79.00;26.13;;;12.10;99.90;;;;;;5077608;28;20636;-83
2022/11/07 08:02:42;;;;;;;77.07;32.03;;;12.10;99.90;;;;;;5077535;28;20190;-83
2022/11/07 08:05:10;;;;;;;75.27;27.23;;;12.10;99.90;;;;;;5078979;28;20172;-83
2022/11/07 08:07:47;;;;;;;75.28;24.08;;;12.10;99.90;;;;;;5077827;28;20424;-83
2022/11/07 08:10:13;;;;;;;80.55;29.67;;;12.10;99.90;;;;;;5079890;28;20209;-83
2022/11/07 08:12:46;;;;;;;74.70;32.72;;;12.10;99.90;;;;;;5078814;28;20171;-83
2022/11/07 08:15:13;;;;;;;74.22;25.73;;;12.20;99.90;;;;;;5077632;28;20217;-83
2022/11/07 08:17:40;;;;;;;72.80;21.98;;;12.20;99.90;;;;;;5078582;28;20156;-83
2022/11/07 08:20:08;;;;;;;82.05;31.52;;;12.20;99.90;;;;;;5078774;28;20710;-83
2022/11/07 08:22:34;;;;;;;82.80;44.65;;;12.20;99.90;;;;;;5078506;28;20219;-84
2022/11/07 08:25:00;;;;;;;78.45;30.67;;;12.30;99.90;;;;;;5078601;28;20160;-83
2022/11/07 08:27:26;;;;;;;73.33;20.80;;;12.30;99.90;;;;;;5078508;28;20573;-83
2022/11/07 08:29:51;;;;;;;72.90;23.80;;;12.30;99.90;;;;;;5077689;28;20452;-83
2022/11/07 08:32:17;;;;;;;74.60;26.77;;;12.40;99.90;;;;;;5077658;28;20168;-83
2022/11/07 08:34:43;;;;;;;72.10;19.13;;;12.40;99.90;;;;;;5078077;28;20242;-83
2022/11/07 08:37:08;;;;;;;75.90;20.17;;;12.40;99.90;;;;;;5078663;28;20189;-83
2022/11/07 08:39:34;;;;;;;70.80;21.67;;;12.40;99.90;;;;;;5077796;28;20658;-82
2022/11/07 08:41:59;;;;;;;75.17;23.77;;;12.50;99.90;;;;;;5078088;28;20175;-83
2022/11/07 08:44:25;;;;;;;70.67;20.27;;;12.50;99.90;;;;;;5078164;28;20526;-83
2022/11/07 08:46:51;;;;;;;75.37;19.70;;;12.50;99.90;;;;;;5077753;28;20168;-83
2022/11/07 08:49:17;;;;;;;70.07;18.63;;;12.60;99.90;;;;;;5076853;28;20218;-83
2022/11/07 08:51:43;;;;;;;70.53;18.20;;;12.60;99.90;;;;;;5077418;28;20168;-83
2022/11/07 08:54:10;;;;;;;71.37;16.73;;;12.60;99.90;;;;;;5077428;28;20255;-82
2022/11/07 08:56:36;;;;;;;71.40;16.08;;;12.60;99.90;;;;;;5076850;28;20251;-82
2022/11/07 08:59:02;;;;;;;70.97;21.20;;;12.70;99.90;;;;;;5076104;28;20618;-83
2022/11/07 09:01:28;;;;;;;72.27;15.43;;;12.70;99.90;;;;;;5076984;28;20755;-83
2022/11/07 09:03:54;;;;;;;72.33;20.93;;;12.80;99.90;;;;;;5077549;28;20422;-83
2022/11/07 09:06:19;;;;;;;75.47;19.33;;;12.80;99.90;;;;;;5077235;28;20168;-83
2022/11/07 09:08:45;;;;;;;72.57;20.27;;;12.90;99.90;;;;;;5078651;28;20164;-83
2022/11/07 09:11:14;;;;;;;69.60;17.67;;;13.00;99.90;;;;;;5076806;28;20174;-83
2022/11/07 09:13:40;;;;;;;71.97;18.80;;;13.10;99.90;;;;;;5077854;28;20394;-83
2022/11/07 09:16:06;;;;;;;73.73;17.30;;;13.10;99.90;;;;;;5077472;28;20250;-83
2022/11/07 09:18:32;;;;;;;81.23;18.30;;;13.20;99.90;;;;;;5077498;28;20403;-83
2022/11/07 09:20:59;;;;;;;70.13;16.40;;;13.20;99.90;;;;;;5077410;28;20433;-83
2022/11/07 09:23:25;;;;;;;71.30;15.38;;;13.20;99.90;;;;;;5078088;28;20178;-83
2022/11/07 09:25:52;;;;;;;71.95;17.38;;;13.20;99.90;;;;;;5076892;28;20202;-83
2022/11/07 09:28:18;;;;;;;68.37;14.53;;;13.20;99.90;;;;;;5076974;28;20172;-83
2022/11/07 09:30:43;;;;;;;68.70;16.07;;;13.20;99.90;;;;;;5076444;28;20549;-83
2022/11/07 09:33:09;;;;;;;69.57;13.60;;;13.30;99.90;;;;;;5076184;28;20176;-82
2022/11/07 09:35:35;;;;;;;71.83;16.50;;;13.30;99.90;;;;;;5076457;28;20164;-82
2022/11/07 09:38:00;;;;;;;69.50;12.43;;;13.30;99.90;;;;;;5076761;28;20646;-83
2022/11/07 09:40:57;;;;;;;70.00;13.67;;;13.50;99.90;;;;;;5076288;28;20179;-83
2022/11/07 09:43:40;;;;;;;68.57;11.50;;;13.50;99.90;;;;;;5076648;28;20515;-83
2022/11/07 09:46:43;;;;;;;70.85;10.93;;;13.60;99.90;;;;;;5075802;28;20413;-82
2022/11/07 09:49:19;;;;;;;70.00;11.68;;;13.70;99.90;;;;;;5076948;28;20202;-83
2022/11/07 09:52:03;;;;;;;73.27;11.30;;;13.70;99.90;;;;;;5076852;28;20151;-82
2022/11/07 09:54:36;;;;;;;70.67;10.63;;;13.70;99.90;;;;;;5077028;28;20395;-83
2022/11/07 09:57:02;;;;;;;68.47;14.80;;;13.80;99.90;;;;;;5078061;28;20436;-83
2022/11/07 09:59:50;;;;;;;72.15;18.27;;;13.80;99.90;;;;;;5076794;28;20417;-82
2022/11/07 10:02:19;;;;;;;73.67;21.00;;;13.80;99.90;;;;;;5076524;28;20213;-83
2022/11/07 10:04:47;;;;;;;70.40;13.13;;;13.80;99.90;;;;;;5076182;28;20402;-83
2022/11/07 10:07:27;;;;;;;70.80;12.23;;;13.80;99.90;;;;;;5075011;28;20176;-84
2022/11/07 10:10:02;;;;;;;69.00;12.00;;;13.80;99.90;;;;;;5076325;28;20489;-83
2022/11/07 10:12:39;;;;;;;73.13;14.53;;;13.80;99.90;;;;;;5075427;28;20908;-83
2022/11/07 10:15:13;;;;;;;67.67;12.57;;;13.90;99.90;;;;;;5076476;28;20397;-82
2022/11/07 10:18:01;;;;;;;77.50;15.50;;;14.00;99.90;;;;;;5076639;28;20370;-83
2022/11/07 10:20:52;;;;;;;80.47;12.75;;;14.10;99.90;;;;;;5075996;28;20422;-83
2022/11/07 10:23:23;;;;;;;67.20;9.60;;;14.20;99.90;;;;;;5076225;28;20520;-82
2022/11/07 10:26:00;;;;;;;68.17;8.33;;;14.30;99.90;;;;;;5076004;28;20465;-83
2022/11/07 10:28:26;;;;;;;69.53;8.43;;;14.30;99.90;;;;;;5075996;28;20378;-83
2022/11/07 10:30:54;;;;;;;68.57;7.17;;;14.40;99.90;;;;;;5076012;28;20861;-83
2022/11/07 10:33:38;;;;;;;66.20;6.73;;;14.40;99.90;;;;;;5076375;28;20187;-82
2022/11/07 10:36:19;;;;;;;66.77;6.10;;;14.40;99.90;;;;;;5075981;28;20770;-83
2022/11/07 10:38:44;;;;;;;70.37;8.20;;;14.50;99.90;;;;;;5076178;28;20487;-83
2022/11/07 10:41:26;;;;;;;72.93;9.20;;;14.50;99.90;;;;;;5074684;28;20442;-83
2022/11/07 10:44:09;;;;;;;67.27;6.07;;;14.60;99.90;;;;;;5075168;28;20203;-83
2022/11/07 10:46:44;;;;;;;67.47;7.50;;;14.50;99.90;;;;;;5076391;28;20390;-83
2022/11/07 10:49:30;;;;;;;67.90;10.70;;;14.70;99.90;;;;;;5076655;28;20452;-83
2022/11/07 10:52:17;;;;;;;68.47;6.60;;;14.70;99.90;;;;;;5076195;28;20516;-83
2022/11/07 10:54:46;;;;;;;67.67;9.33;;;14.70;99.90;;;;;;5076250;28;20382;-83
2022/11/07 10:57:15;;;;;;;67.53;10.60;;;14.80;99.90;;;;;;5076132;28;20428;-83
2022/11/07 10:59:58;;;;;;;69.37;10.53;;;14.90;99.90;;;;;;5077861;28;20426;-83
2022/11/07 11:02:44;;;;;;;69.30;14.83;;;15.00;99.90;;;;;;5079460;28;20459;-83
2022/11/07 11:05:38;;;;;;;70.50;10.40;;;14.90;99.90;;;;;;5077829;28;20508;-82
2022/11/07 11:08:35;;;;;;;70.10;17.30;;;14.90;99.90;;;;;;5076031;28;20457;-83
2022/11/07 11:11:00;;;;;;;70.10;10.60;;;15.00;99.90;;;;;;5079891;28;20468;-82
2022/11/07 11:13:33;;;;;;;68.30;12.00;;;15.20;99.90;;;;;;5079316;28;20398;-83
2022/11/07 11:16:27;;;;;;;66.80;11.07;;;15.40;99.90;;;;;;5079667;28;20553;-83
2022/11/07 11:18:56;;;;;;;67.67;9.93;;;15.50;99.90;;;;;;5079369;28;20918;-83
2022/11/07 11:21:22;;;;;;;67.30;6.90;;;15.50;99.90;;;;;;5079370;28;20523;-83
2022/11/07 11:23:48;;;;;;;66.13;6.43;;;15.40;99.90;;;;;;5079843;28;20398;-85
2022/11/07 11:26:32;;;;;;;66.10;5.20;;;15.40;99.90;;;;;;5080099;28;20473;-83
2022/11/07 11:29:03;;;;;;;65.80;7.10;;;15.50;99.90;;;;;;5079606;28;20405;-83
2022/11/07 11:31:33;;;;;;;65.47;6.60;;;15.50;99.90;;;;;;5078889;28;20394;-83
2022/11/07 11:34:25;;;;;;;66.10;6.43;;;15.50;99.90;;;;;;5144189;22;20517;-87
2022/11/07 11:37:16;;;;;;;72.37;6.07;;;15.40;99.90;;;;;;5082430;28;20415;-86
2022/11/07 11:39:57;;;;;;;65.30;6.20;;;15.60;99.90;;;;;;5082431;28;20421;-86
2022/11/07 11:43:02;;;;;;;66.30;6.07;;;15.70;99.90;;;;;;5084054;28;20455;-87
2022/11/07 11:45:38;;;;;;;68.47;7.43;;;15.60;99.90;;;;;;5083094;28;20414;-86
2022/11/07 11:48:25;;;;;;;66.47;5.40;;;15.60;99.90;;;;;;5082401;28;20455;-88
2022/11/07 11:51:21;;;;;;;67.43;8.83;;;15.60;99.90;;;;;;5083458;28;20543;-86
2022/11/07 11:53:47;;;;;;;68.10;8.20;;;15.80;99.90;;;;;;5076675;28;20423;-87
2022/11/07 11:56:57;;;;;;;69.60;7.97;;;15.90;99.90;;;;;;5081661;28;20513;-86
2022/11/07 11:59:56;;;;;;;69.90;7.13;;;16.00;99.90;;;;;;5083578;28;20426;-87
2022/11/07 12:02:40;;;;;;;65.20;5.80;;;16.00;99.90;;;;;;5082012;28;20420;-87
2022/11/07 12:05:34;;;;;;;70.40;6.00;;;16.00;99.90;;;;;;5082218;28;20400;-86
2022/11/07 12:08:10;;;;;;;64.93;5.30;;;15.90;99.90;;;;;;5081585;28;20404;-86
2022/11/07 12:11:02;;;;;;;67.13;5.50;;;15.80;99.90;;;;;;5080569;28;20524;-87
2022/11/07 12:13:27;;;;;;;66.80;5.97;;;15.80;99.90;;;;;;5083521;28;20412;-87
2022/11/07 12:16:15;;;;;;;69.77;7.07;;;15.70;99.90;;;;;;5086936;28;20403;-87
2022/11/07 12:19:20;;;;;;;69.90;7.50;;;15.80;99.90;;;;;;5085930;28;20192;-87
2022/11/07 12:22:30;;;;;;;66.87;6.10;;;15.70;99.90;;;;;;5086576;28;20383;-88
2022/11/07 12:25:11;;;;;;;66.93;5.97;;;15.70;99.90;;;;;;5085932;28;20388;-87
2022/11/07 12:27:46;;;;;;;66.03;6.87;;;15.70;99.90;;;;;;5084672;28;20728;-85
2022/11/07 12:30:18;;;;;;;66.90;6.33;;;15.70;99.90;;;;;;5086565;28;20442;-86
2022/11/07 12:33:16;;;;;;;68.50;6.67;;;15.60;99.90;;;;;;5085517;28;20425;-86
2022/11/07 12:36:05;;;;;;;67.07;5.53;;;15.70;99.90;;;;;;5085172;28;20376;-87
2022/11/07 12:38:34;;;;;;;65.37;5.37;;;15.70;99.90;;;;;;5086399;28;20388;-84
2022/11/07 12:41:06;;;;;;;68.40;5.10;;;15.70;99.90;;;;;;5089377;28;20410;-86
2022/11/07 12:44:00;;;;;;;66.03;6.20;;;15.70;99.90;;;;;;5089490;28;20409;-86
2022/11/07 12:47:06;;;;;;;65.57;6.00;;;15.70;99.90;;;;;;5090187;28;20415;-86
2022/11/07 12:49:58;;;;;;;68.27;6.70;;;15.60;99.90;;;;;;5090168;28;20462;-87
2022/11/07 12:52:51;;;;;;;68.13;6.43;;;15.60;99.90;;;;;;5089669;28;20390;-86
2022/11/07 12:55:23;;;;;;;67.03;6.27;;;15.60;99.90;;;;;;5087963;28;20425;-86
2022/11/07 12:57:52;;;;;;;65.27;5.17;;;15.70;99.90;;;;;;5087804;28;20896;-86